Time;durP1;ratioP1;P1;durP2;ratioP2;P2;SDS_P1;SDS_P2;PMS_P1;PMS_P2;Temp;Humidity;BMP_temperature;BMP_pressure;BME280_temperature;BME280_humidity;BME280_pressure;Samples;Min_cycle;Max_cycle;Signal;HPM_P1;HPM_P2
2022/03/14 00:00:39;;;;;;;19.95;13.18;;;;;;;;;;5091203;28;20054;-67
2022/03/14 00:03:06;;;;;;;20.25;12.55;;;;;;;;;;5091524;28;20079;-67
2022/03/14 00:05:32;;;;;;;20.27;12.60;;;;;;;;;;5091870;28;20050;-67
2022/03/14 00:07:59;;;;;;;20.13;13.55;;;;;;;;;;5092086;28;20071;-67
2022/03/14 00:10:25;;;;;;;21.27;12.48;;;;;;;;;;5091371;28;20040;-67
2022/03/14 00:12:55;;;;;;;19.38;12.63;;;;;;;;;;5092012;28;20040;-67
2022/03/14 00:15:22;;;;;;;27.13;12.88;;;;;;;;;;5091867;28;20063;-67
2022/03/14 00:17:49;;;;;;;19.70;11.35;;;;;;;;;;5091387;28;20486;-67
2022/03/14 00:20:16;;;;;;;16.80;11.40;;;;;;;;;;5091904;28;20097;-67
2022/03/14 00:22:45;;;;;;;18.33;11.30;;;;;;;;;;5091581;28;20040;-67
2022/03/14 00:25:11;;;;;;;14.38;10.20;;;;;;;;;;5090431;28;20050;-67
2022/03/14 00:27:37;;;;;;;15.23;10.40;;;;;;;;;;5071469;28;20040;-67
2022/03/14 00:30:11;;;;;;;14.43;9.85;;;;;;;;;;5071353;28;20052;-67
2022/03/14 00:32:39;;;;;;;14.95;9.65;;;;;;;;;;5071056;28;20054;-67
2022/03/14 00:35:07;;;;;;;13.65;9.02;;;;;;;;;;5071593;28;20123;-67
2022/03/14 00:37:34;;;;;;;12.20;8.15;;;;;;;;;;5071552;28;20459;-67
2022/03/14 00:40:00;;;;;;;14.23;8.93;;;;;;;;;;5070879;28;20572;-67
2022/03/14 00:42:26;;;;;;;10.77;7.68;;;;;;;;;;5071470;28;20044;-67
2022/03/14 00:44:53;;;;;;;12.60;7.53;;;;;;;;;;5071237;28;20127;-67
2022/03/14 00:47:21;;;;;;;11.38;6.78;;;;;;;;;;5070657;28;20048;-67
2022/03/14 00:49:47;;;;;;;9.90;6.50;;;;;;;;;;5071465;28;20041;-67
2022/03/14 00:52:16;;;;;;;8.63;6.05;;;;;;;;;;5071574;28;20036;-67
2022/03/14 00:54:42;;;;;;;8.98;6.20;;;;;;;;;;5070916;28;20044;-67
2022/03/14 00:57:08;;;;;;;8.23;5.90;;;;;;;;;;5071303;28;20115;-67
2022/03/14 00:59:34;;;;;;;8.57;5.85;;;;;;;;;;5071281;28;20121;-67
2022/03/14 01:02:01;;;;;;;10.32;6.28;;;;;;;;;;5070680;28;20053;-67
2022/03/14 01:04:27;;;;;;;10.05;6.13;;;;;;;;;;5071141;28;20047;-67
2022/03/14 01:06:53;;;;;;;10.50;6.28;;;;;;;;;;5071125;28;20080;-67
2022/03/14 01:09:19;;;;;;;10.73;4.78;;;;;;;;;;5070191;28;20045;-67
2022/03/14 01:11:45;;;;;;;6.38;5.25;;;;;;;;;;5073094;28;20431;-67
2022/03/14 01:14:12;;;;;;;8.65;5.90;;;;;;;;;;5074922;28;20072;-67
2022/03/14 01:16:40;;;;;;;6.88;5.20;;;;;;;;;;5074416;28;20040;-67
2022/03/14 01:19:11;;;;;;;7.63;5.15;;;;;;;;;;5074764;28;20055;-67
2022/03/14 01:21:38;;;;;;;7.00;5.20;;;;;;;;;;5075052;28;20547;-67
2022/03/14 01:24:04;;;;;;;9.02;4.90;;;;;;;;;;5073039;28;20040;-67
2022/03/14 01:26:30;;;;;;;6.57;4.50;;;;;;;;;;5086507;28;20051;-67
2022/03/14 01:28:57;;;;;;;7.35;5.20;;;;;;;;;;5095136;28;20085;-67
2022/03/14 01:31:23;;;;;;;10.82;5.47;;;;;;;;;;5094094;28;20491;-67
2022/03/14 01:33:49;;;;;;;8.52;5.78;;;;;;;;;;5094923;28;20066;-67
2022/03/14 01:36:15;;;;;;;7.43;5.07;;;;;;;;;;5094989;28;20048;-67
2022/03/14 01:38:41;;;;;;;6.72;5.13;;;;;;;;;;5094348;28;20173;-67
2022/03/14 01:41:07;;;;;;;6.07;4.45;;;;;;;;;;5095019;28;20050;-67
2022/03/14 01:43:33;;;;;;;6.70;5.07;;;;;;;;;;5094926;28;20085;-67
2022/03/14 01:45:59;;;;;;;6.50;4.88;;;;;;;;;;5092844;28;20044;-67
2022/03/14 01:48:25;;;;;;;7.45;5.05;;;;;;;;;;5094901;28;20047;-67
2022/03/14 01:50:52;;;;;;;7.13;4.85;;;;;;;;;;5094651;28;20383;-67
2022/03/14 01:53:19;;;;;;;7.13;5.15;;;;;;;;;;5094151;28;20047;-67
2022/03/14 01:55:46;;;;;;;6.18;4.47;;;;;;;;;;5094358;28;20036;-67
2022/03/14 01:58:16;;;;;;;6.45;4.60;;;;;;;;;;5094688;28;20102;-67
2022/03/14 02:00:43;;;;;;;6.18;4.50;;;;;;;;;;5093900;28;20040;-67
2022/03/14 02:03:09;;;;;;;6.47;4.78;;;;;;;;;;5094376;28;20105;-67
2022/03/14 02:05:36;;;;;;;6.85;4.10;;;;;;;;;;5093003;28;20040;-67
2022/03/14 02:08:03;;;;;;;4.97;4.47;;;;;;;;;;5093587;28;20047;-67
2022/03/14 02:10:29;;;;;;;9.25;5.05;;;;;;;;;;5094195;28;20105;-67
2022/03/14 02:12:56;;;;;;;7.20;4.47;;;;;;;;;;5093941;28;20044;-67
2022/03/14 02:15:22;;;;;;;5.72;4.43;;;;;;;;;;5093370;28;20089;-67
2022/03/14 02:17:48;;;;;;;7.30;4.78;;;;;;;;;;5093967;28;20046;-67
2022/03/14 02:20:14;;;;;;;5.28;4.28;;;;;;;;;;5093746;28;20044;-67
2022/03/14 02:22:40;;;;;;;5.97;4.38;;;;;;;;;;5092784;28;20390;-67
2022/03/14 02:25:10;;;;;;;5.45;4.45;;;;;;;;;;5093960;28;20653;-67
2022/03/14 02:27:37;;;;;;;5.75;4.28;;;;;;;;;;5073425;28;20685;-67
2022/03/14 02:30:03;;;;;;;7.63;4.65;;;;;;;;;;5072791;28;20415;-67
2022/03/14 02:32:29;;;;;;;8.70;4.68;;;;;;;;;;5073510;28;20041;-67
2022/03/14 02:34:55;;;;;;;6.00;4.72;;;;;;;;;;5073428;28;20063;-67
2022/03/14 02:37:22;;;;;;;6.93;4.80;;;;;;;;;;5072791;28;20040;-67
2022/03/14 02:39:48;;;;;;;6.28;4.78;;;;;;;;;;5072072;28;20048;-67
2022/03/14 02:42:14;;;;;;;8.20;4.82;;;;;;;;;;5073500;28;20048;-67
2022/03/14 02:44:43;;;;;;;6.82;4.55;;;;;;;;;;5072495;28;20051;-67
2022/03/14 02:47:10;;;;;;;6.30;4.70;;;;;;;;;;5073278;28;20170;-67
2022/03/14 02:49:37;;;;;;;5.85;4.53;;;;;;;;;;5072993;28;20041;-67
2022/03/14 02:52:03;;;;;;;5.75;4.43;;;;;;;;;;5072692;28;20392;-67
2022/03/14 02:54:29;;;;;;;7.43;4.53;;;;;;;;;;5073365;28;20125;-67
2022/03/14 02:56:56;;;;;;;4.40;3.95;;;;;;;;;;5073221;28;20068;-67
2022/03/14 02:59:22;;;;;;;7.32;4.25;;;;;;;;;;5072554;28;20045;-67
2022/03/14 03:01:48;;;;;;;5.45;4.03;;;;;;;;;;5073134;28;20028;-67
2022/03/14 03:04:15;;;;;;;4.43;3.40;;;;;;;;;;5073099;28;20072;-67
2022/03/14 03:06:42;;;;;;;4.85;3.50;;;;;;;;;;5072109;28;20044;-67
2022/03/14 03:09:08;;;;;;;4.35;3.60;;;;;;;;;;5072878;28;20381;-67
2022/03/14 03:11:35;;;;;;;4.90;3.63;;;;;;;;;;5072780;28;20039;-67
2022/03/14 03:14:01;;;;;;;5.97;3.33;;;;;;;;;;5072233;28;20047;-67
2022/03/14 03:16:27;;;;;;;5.68;3.70;;;;;;;;;;5072700;28;20392;-67
2022/03/14 03:18:54;;;;;;;4.53;3.70;;;;;;;;;;5072610;28;20407;-67
2022/03/14 03:21:20;;;;;;;4.93;3.50;;;;;;;;;;5071608;28;20048;-67
2022/03/14 03:23:46;;;;;;;4.25;3.35;;;;;;;;;;5072673;28;20056;-67
2022/03/14 03:26:12;;;;;;;4.15;3.40;;;;;;;;;;5081571;28;20044;-67
2022/03/14 03:28:38;;;;;;;4.68;3.53;;;;;;;;;;5092063;28;20467;-67
2022/03/14 03:31:19;;;;;;;5.25;3.65;;;;;;;;;;5092258;28;20052;-67
2022/03/14 03:33:45;;;;;;;4.20;3.40;;;;;;;;;;5092601;28;20040;-67
2022/03/14 03:36:11;;;;;;;4.47;3.40;;;;;;;;;;5090918;28;20040;-67
2022/03/14 03:38:38;;;;;;;4.93;3.50;;;;;;;;;;5090961;28;20044;-67
2022/03/14 03:41:05;;;;;;;4.68;3.50;;;;;;;;;;5092159;28;20563;-67
2022/03/14 03:43:31;;;;;;;4.15;3.45;;;;;;;;;;5091511;28;20040;-67
2022/03/14 03:45:57;;;;;;;4.47;3.47;;;;;;;;;;5091018;28;20505;-67
2022/03/14 03:48:23;;;;;;;4.75;3.42;;;;;;;;;;5090958;28;20047;-67
2022/03/14 03:50:49;;;;;;;5.50;3.75;;;;;;;;;;5090513;28;20035;-67
2022/03/14 03:53:15;;;;;;;5.90;3.63;;;;;;;;;;5091004;28;20501;-67
2022/03/14 03:55:41;;;;;;;4.88;3.47;;;;;;;;;;5090907;28;20438;-67
2022/03/14 03:58:07;;;;;;;4.35;3.50;;;;;;;;;;5090755;28;20128;-67
2022/03/14 04:00:33;;;;;;;4.43;3.38;;;;;;;;;;5090423;28;20513;-67
2022/03/14 04:02:59;;;;;;;6.38;3.95;;;;;;;;;;5090673;28;20449;-67
2022/03/14 04:05:27;;;;;;;5.53;3.58;;;;;;;;;;5090478;28;20146;-67
2022/03/14 04:07:57;;;;;;;5.25;3.22;;;;;;;;;;5090046;28;20044;-67
2022/03/14 04:10:24;;;;;;;3.70;3.00;;;;;;;;;;5090497;28;20056;-68
2022/03/14 04:12:53;;;;;;;5.15;3.28;;;;;;;;;;5090798;28;20040;-68
2022/03/14 04:15:21;;;;;;;3.83;3.30;;;;;;;;;;5090188;28;20394;-68
2022/03/14 04:17:47;;;;;;;4.28;3.20;;;;;;;;;;5090620;28;20090;-67
2022/03/14 04:20:13;;;;;;;4.32;2.90;;;;;;;;;;5090551;28;20039;-67
2022/03/14 04:22:40;;;;;;;5.22;3.47;;;;;;;;;;5089859;28;20050;-67
2022/03/14 04:25:07;;;;;;;4.05;3.13;;;;;;;;;;5090430;28;20072;-67
2022/03/14 04:27:33;;;;;;;3.40;3.10;;;;;;;;;;5069709;28;20501;-67
2022/03/14 04:29:59;;;;;;;3.80;3.00;;;;;;;;;;5069378;28;20056;-67
2022/03/14 04:32:26;;;;;;;4.72;3.10;;;;;;;;;;5070317;28;20487;-67
2022/03/14 04:34:52;;;;;;;3.67;3.00;;;;;;;;;;5070173;28;20064;-67
2022/03/14 04:37:19;;;;;;;3.72;2.85;;;;;;;;;;5069608;28;20109;-67
2022/03/14 04:39:46;;;;;;;3.55;2.95;;;;;;;;;;5069877;28;20036;-67
2022/03/14 04:42:12;;;;;;;4.10;2.95;;;;;;;;;;5070201;28;20543;-67
2022/03/14 04:44:38;;;;;;;3.80;2.67;;;;;;;;;;5068218;28;20407;-67
2022/03/14 04:47:04;;;;;;;3.92;2.88;;;;;;;;;;5070987;28;20036;-67
2022/03/14 04:49:31;;;;;;;3.45;2.90;;;;;;;;;;5074248;28;20552;-67
2022/03/14 04:51:57;;;;;;;3.17;2.70;;;;;;;;;;5073299;28;20521;-67
2022/03/14 04:54:23;;;;;;;3.67;2.83;;;;;;;;;;5073868;28;20048;-67
2022/03/14 04:56:49;;;;;;;4.00;3.33;;;;;;;;;;5074058;28;20123;-67
2022/03/14 04:59:16;;;;;;;4.30;2.88;;;;;;;;;;5073544;28;20553;-67
2022/03/14 05:01:43;;;;;;;6.82;3.40;;;;;;;;;;5074048;28;20047;-67
2022/03/14 05:04:09;;;;;;;4.07;3.15;;;;;;;;;;5074022;28;20062;-67
2022/03/14 05:06:35;;;;;;;3.58;2.78;;;;;;;;;;5073319;28;20043;-67
2022/03/14 05:09:02;;;;;;;4.43;2.80;;;;;;;;;;5073944;28;20123;-67
2022/03/14 05:11:28;;;;;;;4.20;3.20;;;;;;;;;;5073887;28;20048;-67
2022/03/14 05:13:54;;;;;;;3.13;2.70;;;;;;;;;;5073208;28;20033;-67
2022/03/14 05:16:20;;;;;;;4.85;3.47;;;;;;;;;;5073709;28;20514;-67
2022/03/14 05:18:46;;;;;;;5.88;3.60;;;;;;;;;;5073786;28;20036;-67
2022/03/14 05:21:13;;;;;;;4.93;3.92;;;;;;;;;;5073153;28;20032;-67
2022/03/14 05:23:39;;;;;;;4.03;3.45;;;;;;;;;;5073447;28;20041;-67
2022/03/14 05:26:05;;;;;;;5.28;3.50;;;;;;;;;;5081734;28;20078;-67
2022/03/14 05:28:31;;;;;;;4.65;3.38;;;;;;;;;;5093004;28;20498;-67
2022/03/14 05:30:57;;;;;;;3.78;3.40;;;;;;;;;;5093228;28;20121;-67
2022/03/14 05:33:23;;;;;;;6.05;3.67;;;;;;;;;;5093719;28;20040;-67
2022/03/14 05:35:50;;;;;;;6.30;3.60;;;;;;;;;;5092858;28;20111;-67
2022/03/14 05:38:16;;;;;;;5.32;3.75;;;;;;;;;;5093566;28;20059;-67
2022/03/14 05:40:42;;;;;;;5.05;3.70;;;;;;;;;;5093566;28;20051;-67
2022/03/14 05:43:09;;;;;;;5.35;3.80;;;;;;;;;;5092682;28;20167;-67
2022/03/14 05:45:35;;;;;;;6.40;4.13;;;;;;;;;;5093539;28;20119;-67
2022/03/14 05:48:01;;;;;;;4.85;3.70;;;;;;;;;;5093741;28;20524;-67
2022/03/14 05:50:27;;;;;;;5.10;3.65;;;;;;;;;;5092689;28;20075;-67
2022/03/14 05:52:53;;;;;;;5.72;3.67;;;;;;;;;;5093180;28;20036;-67
2022/03/14 05:55:19;;;;;;;5.38;3.95;;;;;;;;;;5093111;28;20151;-67
2022/03/14 05:57:45;;;;;;;4.72;3.67;;;;;;;;;;5090311;28;20047;-67
2022/03/14 06:00:12;;;;;;;5.88;4.00;;;;;;;;;;5093158;28;20040;-67
2022/03/14 06:02:39;;;;;;;4.65;3.60;;;;;;;;;;5093368;28;20513;-67
2022/03/14 06:05:05;;;;;;;5.05;3.80;;;;;;;;;;5092867;28;20036;-67
2022/03/14 06:07:32;;;;;;;4.32;3.80;;;;;;;;;;5092724;28;20093;-67
2022/03/14 06:09:58;;;;;;;5.72;4.30;;;;;;;;;;5092905;28;20664;-67
2022/03/14 06:12:24;;;;;;;7.03;4.60;;;;;;;;;;5091616;28;20036;-67
2022/03/14 06:14:54;;;;;;;5.93;3.95;;;;;;;;;;5092603;28;20082;-67
2022/03/14 06:17:21;;;;;;;4.70;3.83;;;;;;;;;;5092546;28;20505;-67
2022/03/14 06:19:47;;;;;;;4.63;3.70;;;;;;;;;;5092368;28;20044;-67
2022/03/14 06:22:14;;;;;;;7.13;4.63;;;;;;;;;;5092494;28;20036;-67
2022/03/14 06:24:40;;;;;;;5.20;4.40;;;;;;;;;;5092747;28;20048;-67
2022/03/14 06:27:06;;;;;;;7.03;3.70;;;;;;;;;;5075141;28;20265;-67
2022/03/14 06:29:33;;;;;;;4.85;4.20;;;;;;;;;;5071860;28;20086;-68
2022/03/14 06:31:59;;;;;;;5.75;4.07;;;;;;;;;;5072376;28;20115;-68
2022/03/14 06:34:26;;;;;;;5.63;3.97;;;;;;;;;;5071516;28;20170;-68
2022/03/14 06:36:52;;;;;;;5.68;4.07;;;;;;;;;;5071925;28;20048;-68
2022/03/14 06:39:18;;;;;;;4.80;4.25;;;;;;;;;;5072267;28;20048;-67
2022/03/14 06:41:44;;;;;;;6.28;4.20;;;;;;;;;;5087134;28;20040;-67
2022/03/14 06:44:13;;;;;;;4.97;4.00;;;;;;;;;;5090571;28;20478;-68
2022/03/14 06:46:39;;;;;;;6.10;4.10;;;;;;;;;;5086748;28;20059;-67
2022/03/14 06:49:06;;;;;;;6.10;4.22;;;;;;;;;;5082332;28;20047;-67
2022/03/14 06:51:33;;;;;;;9.23;4.70;;;;;;;;;;5079331;28;20094;-67
2022/03/14 06:53:59;;;;;;;6.72;4.50;;;;;;;;;;5080724;28;20056;-67
2022/03/14 06:56:25;;;;;;;7.20;4.70;;;;;;;;;;5092427;28;20040;-67
2022/03/14 06:58:51;;;;;;;5.18;4.18;;;;;;;;;;5093007;28;20394;-68
2022/03/14 07:01:18;;;;;;;5.88;4.57;;;;;;;;;;5091563;28;20044;-67
2022/03/14 07:03:44;;;;;;;7.35;5.13;;;;;;;;;;5092257;28;20048;-67
2022/03/14 07:06:10;;;;;;;6.15;4.63;;;;;;;;;;5092678;28;20544;-68
2022/03/14 07:08:37;;;;;;;5.47;3.97;;;;;;;;;;5092794;28;20038;-68
2022/03/14 07:11:03;;;;;;;6.13;4.47;;;;;;;;;;5092206;28;20093;-68
2022/03/14 07:13:29;;;;;;;6.40;4.75;;;;;;;;;;5092611;28;20040;-68
2022/03/14 07:15:55;;;;;;;5.07;4.10;;;;;;;;;;5092661;28;20506;-68
2022/03/14 07:18:21;;;;;;;6.85;4.85;;;;;;;;;;5092388;28;20040;-68
2022/03/14 07:20:47;;;;;;;6.32;4.80;;;;;;;;;;5092796;28;20123;-68
2022/03/14 07:23:13;;;;;;;7.97;4.93;;;;;;;;;;5092881;28;20123;-68
2022/03/14 07:25:39;;;;;;;7.93;4.95;;;;;;;;;;5087322;28;20464;-67
2022/03/14 07:28:07;;;;;;;6.32;4.65;;;;;;;;;;5073241;28;20087;-67
2022/03/14 07:30:34;;;;;;;6.95;5.10;;;;;;;;;;5092184;28;20140;-67
2022/03/14 07:33:00;;;;;;;6.40;5.15;;;;;;;;;;5090275;28;20036;-67
2022/03/14 07:35:27;;;;;;;8.48;4.90;;;;;;;;;;5068566;28;20044;-65
2022/03/14 07:37:53;;;;;;;6.57;5.50;;;;;;;;;;5093347;28;20044;-65
2022/03/14 07:40:20;;;;;;;7.18;6.00;;;;;;;;;;5091495;28;20051;-67
2022/03/14 07:42:47;;;;;;;7.53;5.40;;;;;;;;;;5087005;28;20692;-65
2022/03/14 07:45:14;;;;;;;7.03;5.00;;;;;;;;;;5091590;28;20139;-68
2022/03/14 07:47:41;;;;;;;7.47;5.43;;;;;;;;;;5090456;28;20054;-66
2022/03/14 07:50:08;;;;;;;6.65;5.65;;;;;;;;;;5089097;28;20036;-63
2022/03/14 07:52:37;;;;;;;5.32;4.80;;;;;;;;;;5088704;28;20080;-64
2022/03/14 07:55:07;;;;;;;8.88;5.55;;;;;;;;;;5089144;28;20081;-65
2022/03/14 07:57:37;;;;;;;8.10;5.68;;;;;;;;;;5091369;28;20036;-67
2022/03/14 08:00:05;;;;;;;8.10;5.68;;;;;;;;;;5090804;28;20642;-65
2022/03/14 08:02:31;;;;;;;8.07;6.05;;;;;;;;;;5078914;28;20051;-66
2022/03/14 08:04:57;;;;;;;8.30;5.82;;;;;;;;;;5078665;28;20048;-64
2022/03/14 08:07:23;;;;;;;8.27;5.68;;;;;;;;;;5084783;28;20048;-65
2022/03/14 08:09:50;;;;;;;9.10;5.68;;;;;;;;;;5085879;28;20047;-65
2022/03/14 08:12:16;;;;;;;6.80;6.10;;;;;;;;;;5090603;28;20036;-64
2022/03/14 08:14:42;;;;;;;10.30;6.10;;;;;;;;;;5090376;28;20093;-65
2022/03/14 08:17:08;;;;;;;7.45;5.90;;;;;;;;;;5091257;28;20040;-65
2022/03/14 08:19:35;;;;;;;8.90;5.93;;;;;;;;;;5089961;28;20064;-64
2022/03/14 08:22:01;;;;;;;9.55;6.03;;;;;;;;;;5089491;28;20502;-64
2022/03/14 08:24:28;;;;;;;8.65;5.95;;;;;;;;;;5078022;28;20036;-64
2022/03/14 08:26:54;;;;;;;6.60;5.22;;;;;;;;;;5080874;28;20029;-64
2022/03/14 08:29:20;;;;;;;7.78;5.22;;;;;;;;;;5077302;28;20040;-65
2022/03/14 08:31:46;;;;;;;7.75;6.15;;;;;;;;;;5090600;28;20044;-64
2022/03/14 08:34:12;;;;;;;9.35;6.13;;;;;;;;;;5090013;28;20082;-64
2022/03/14 08:36:40;;;;;;;8.73;6.45;;;;;;;;;;5090997;28;20139;-64
2022/03/14 08:39:06;;;;;;;8.05;6.07;;;;;;;;;;5077186;28;20072;-65
2022/03/14 08:41:36;;;;;;;10.10;6.63;;;;;;;;;;5077740;28;20094;-65
2022/03/14 08:44:03;;;;;;;9.88;6.28;;;;;;;;;;5084343;28;20056;-65
2022/03/14 08:46:29;;;;;;;8.00;6.28;;;;;;;;;;5090338;28;20042;-66
2022/03/14 08:48:55;;;;;;;9.18;7.05;;;;;;;;;;5090298;28;20453;-65
2022/03/14 08:51:21;;;;;;;8.80;6.97;;;;;;;;;;5079187;28;20403;-65
2022/03/14 08:53:47;;;;;;;9.18;7.15;;;;;;;;;;5082442;28;20043;-65
2022/03/14 08:56:13;;;;;;;10.40;7.45;;;;;;;;;;5074355;28;20525;-64
2022/03/14 08:58:39;;;;;;;9.85;8.25;;;;;;;;;;5090555;28;20032;-64
2022/03/14 09:01:07;;;;;;;11.02;8.55;;;;;;;;;;5090438;28;20076;-65
2022/03/14 09:03:33;;;;;;;10.23;7.85;;;;;;;;;;5090159;28;20066;-65
2022/03/14 09:06:00;;;;;;;15.40;10.20;;;;;;;;;;5089947;28;20452;-66
2022/03/14 09:08:28;;;;;;;14.90;10.60;;;;;;;;;;5090796;28;20679;-66
2022/03/14 09:10:55;;;;;;;16.80;11.27;;;;;;;;;;5088647;28;20459;-67
2022/03/14 09:13:23;;;;;;;16.40;11.43;;;;;;;;;;5076757;28;20093;-65
2022/03/14 09:15:50;;;;;;;18.75;13.15;;;;;;;;;;5088846;28;20442;-64
2022/03/14 09:18:16;;;;;;;19.35;12.63;;;;;;;;;;5087678;28;20052;-66
2022/03/14 09:20:44;;;;;;;19.75;13.85;;;;;;;;;;5089639;28;20044;-67
2022/03/14 09:23:10;;;;;;;19.92;13.85;;;;;;;;;;5080460;28;20048;-70
2022/03/14 09:25:36;;;;;;;20.58;13.50;;;;;;;;;;5085930;28;20048;-66
2022/03/14 09:28:03;;;;;;;22.58;14.38;;;;;;;;;;5087547;28;20048;-68
2022/03/14 09:30:29;;;;;;;23.10;14.75;;;;;;;;;;5084600;28;20494;-67
2022/03/14 09:32:55;;;;;;;21.00;14.00;;;;;;;;;;5090165;28;20051;-67
2022/03/14 09:35:22;;;;;;;19.98;13.65;;;;;;;;;;5090234;28;20052;-66
2022/03/14 09:37:49;;;;;;;21.67;15.70;;;;;;;;;;5093913;28;20051;-66
2022/03/14 09:40:20;;;;;;;24.40;15.05;;;;;;;;;;5092802;28;20046;-68
2022/03/14 09:42:47;;;;;;;25.85;15.88;;;;;;;;;;5093295;28;20662;-66
2022/03/14 09:45:14;;;;;;;24.77;15.80;;;;;;;;;;5073723;28;20435;-65
2022/03/14 09:47:44;;;;;;;29.75;18.17;;;;;;;;;;5084965;28;20044;-63
2022/03/14 09:50:11;;;;;;;30.27;18.42;;;;;;;;;;5086641;28;20462;-63
2022/03/14 09:52:39;;;;;;;27.50;15.95;;;;;;;;;;5084996;28;20072;-63
2022/03/14 09:55:07;;;;;;;31.48;17.83;;;;;;;;;;5085638;28;20036;-62
2022/03/14 09:57:33;;;;;;;31.05;17.80;;;;;;;;;;5090167;28;20036;-60
2022/03/14 09:59:59;;;;;;;29.10;17.00;;;;;;;;;;5086512;28;20097;-63
2022/03/14 10:02:25;;;;;;;30.33;18.33;;;;;;;;;;5082251;28;20046;-63
2022/03/14 10:04:51;;;;;;;32.40;17.02;;;;;;;;;;5082730;28;20036;-64
2022/03/14 10:07:17;;;;;;;27.85;16.67;;;;;;;;;;5088506;28;20040;-63
2022/03/14 10:09:44;;;;;;;29.42;16.50;;;;;;;;;;5078883;28;20036;-65
2022/03/14 10:12:14;;;;;;;28.38;16.20;;;;;;;;;;5091142;28;20040;-62
2022/03/14 10:14:40;;;;;;;24.63;14.65;;;;;;;;;;5091372;28;20043;-63
2022/03/14 10:17:06;;;;;;;26.45;15.10;;;;;;;;;;5090040;28;20115;-63
2022/03/14 10:19:34;;;;;;;24.92;15.00;;;;;;;;;;5087170;28;20052;-63
2022/03/14 10:22:16;;;;;;;23.33;13.80;;;;;;;;;;5088549;28;20044;-63
2022/03/14 10:24:43;;;;;;;26.15;14.02;;;;;;;;;;5084851;28;20048;-66
2022/03/14 10:27:12;;;;;;;26.95;13.88;;;;;;;;;;5091735;28;20054;-66
2022/03/14 10:29:38;;;;;;;24.52;13.40;;;;;;;;;;5087288;28;20157;-65
2022/03/14 10:32:19;;;;;;;25.08;13.40;;;;;;;;;;5090949;28;20118;-66
2022/03/14 10:34:52;;;;;;;23.55;12.63;;;;;;;;;;5088089;28;20406;-64
2022/03/14 10:37:18;;;;;;;25.77;13.15;;;;;;;;;;5087501;28;20059;-64
2022/03/14 10:39:44;;;;;;;21.17;12.10;;;;;;;;;;5091268;28;20032;-64
2022/03/14 10:42:12;;;;;;;22.20;10.68;;;;;;;;;;5089871;28;20462;-65
2022/03/14 10:44:39;;;;;;;20.80;10.95;;;;;;;;;;5083094;28;20439;-64
2022/03/14 10:47:06;;;;;;;15.48;9.55;;;;;;;;;;5086082;28;20160;-65
2022/03/14 10:49:36;;;;;;;19.33;9.73;;;;;;;;;;5091944;28;20086;-64
2022/03/14 10:52:10;;;;;;;19.10;8.93;;;;;;;;;;5091032;28;20044;-62
2022/03/14 10:54:37;;;;;;;17.35;8.70;;;;;;;;;;5088526;28;20055;-66
2022/03/14 10:57:07;;;;;;;20.40;9.88;;;;;;;;;;5090941;28;20055;-66
2022/03/14 11:00:05;;;;;;;20.98;10.40;;;;;;;;;;5091602;28;20036;-63
2022/03/14 11:02:33;;;;;;;21.33;10.70;;;;;;;;;;5083444;28;20494;-62
2022/03/14 11:05:02;;;;;;;20.20;10.50;;;;;;;;;;5090358;28;20048;-63
2022/03/14 11:07:33;;;;;;;22.05;10.55;;;;;;;;;;5083725;28;20036;-66
2022/03/14 11:09:59;;;;;;;25.67;11.40;;;;;;;;;;5085758;28;20480;-64
2022/03/14 11:12:30;;;;;;;21.88;11.35;;;;;;;;;;5088483;28;20046;-65
2022/03/14 11:15:00;;;;;;;23.40;11.10;;;;;;;;;;5081753;28;20161;-66
2022/03/14 11:17:28;;;;;;;21.30;11.55;;;;;;;;;;5080581;28;20051;-65
2022/03/14 11:19:54;;;;;;;17.83;10.65;;;;;;;;;;5079423;28;20033;-64
2022/03/14 11:22:21;;;;;;;22.48;10.82;;;;;;;;;;5080392;28;20203;-65
2022/03/14 11:24:49;;;;;;;28.27;11.40;;;;;;;;;;5074860;28;20137;-65
2022/03/14 11:27:21;;;;;;;18.40;9.98;;;;;;;;;;5090422;28;20047;-65
2022/03/14 11:29:48;;;;;;;19.17;10.40;;;;;;;;;;5090410;28;20047;-64
2022/03/14 11:32:16;;;;;;;21.67;10.30;;;;;;;;;;5090652;28;20032;-65
2022/03/14 11:34:43;;;;;;;20.10;10.60;;;;;;;;;;5090490;28;20478;-65
2022/03/14 11:37:10;;;;;;;19.63;10.80;;;;;;;;;;5091116;28;20775;-65
2022/03/14 11:39:37;;;;;;;18.02;10.27;;;;;;;;;;5074975;28;20068;-65
2022/03/14 11:42:03;;;;;;;21.60;11.18;;;;;;;;;;5087824;28;20109;-65
2022/03/14 11:44:29;;;;;;;19.55;10.65;;;;;;;;;;5090272;28;20039;-66
2022/03/14 11:46:56;;;;;;;24.08;11.43;;;;;;;;;;5084952;28;20072;-65
2022/03/14 11:49:24;;;;;;;19.77;10.90;;;;;;;;;;5083849;28;20050;-64
2022/03/14 11:51:50;;;;;;;18.05;10.85;;;;;;;;;;5090582;28;20441;-63
2022/03/14 11:54:16;;;;;;;22.95;11.43;;;;;;;;;;5086904;28;20493;-63
2022/03/14 11:56:58;;;;;;;19.15;10.73;;;;;;;;;;5080249;28;20410;-64
2022/03/14 11:59:29;;;;;;;19.90;11.70;;;;;;;;;;5084687;28;20039;-62
2022/03/14 12:02:00;;;;;;;20.90;11.45;;;;;;;;;;5086621;28;20514;-64
2022/03/14 12:04:27;;;;;;;18.95;12.15;;;;;;;;;;5075009;28;20059;-66
2022/03/14 12:06:55;;;;;;;27.08;12.98;;;;;;;;;;5070982;28;20076;-64
2022/03/14 12:09:24;;;;;;;24.35;13.18;;;;;;;;;;5087593;28;20047;-65
2022/03/14 12:11:51;;;;;;;20.80;13.43;;;;;;;;;;5083384;28;20048;-65
2022/03/14 12:14:42;;;;;;;21.42;14.15;;;;;;;;;;5087573;28;20040;-64
2022/03/14 12:17:14;;;;;;;22.27;14.63;;;;;;;;;;5071923;28;20413;-64
2022/03/14 12:19:51;;;;;;;27.33;14.32;;;;;;;;;;5081342;28;20047;-66
2022/03/14 12:22:29;;;;;;;26.20;14.57;;;;;;;;;;5076705;28;20343;-66
2022/03/14 12:24:55;;;;;;;28.50;15.98;;;;;;;;;;5088090;28;20036;-65
2022/03/14 12:27:21;;;;;;;21.38;15.82;;;;;;;;;;5081678;28;20379;-65
2022/03/14 12:29:49;;;;;;;25.15;16.60;;;;;;;;;;5089423;28;20344;-65
2022/03/14 12:32:34;;;;;;;23.63;16.20;;;;;;;;;;5088995;28;20136;-65
2022/03/14 12:35:06;;;;;;;30.30;17.58;;;;;;;;;;5088038;28;20036;-65
2022/03/14 12:37:38;;;;;;;30.08;17.30;;;;;;;;;;5088487;28;20042;-65
2022/03/14 12:40:24;;;;;;;26.60;17.13;;;;;;;;;;5087660;28;20043;-65
2022/03/14 12:42:52;;;;;;;27.15;16.38;;;;;;;;;;5079582;28;20454;-65
2022/03/14 12:45:19;;;;;;;26.38;16.50;;;;;;;;;;5077206;28;20033;-66
2022/03/14 12:47:53;;;;;;;24.95;16.60;;;;;;;;;;5088979;28;20040;-66
2022/03/14 12:50:42;;;;;;;26.33;15.75;;;;;;;;;;5089166;28;20123;-66
2022/03/14 12:53:08;;;;;;;23.10;15.95;;;;;;;;;;5076389;28;20422;-65
2022/03/14 12:55:34;;;;;;;27.83;15.52;;;;;;;;;;5088156;28;20043;-65
2022/03/14 12:58:00;;;;;;;24.17;15.23;;;;;;;;;;5088873;28;20040;-65
2022/03/14 13:00:26;;;;;;;23.83;14.70;;;;;;;;;;5074067;28;20040;-64
2022/03/14 13:02:53;;;;;;;24.63;15.00;;;;;;;;;;5077583;28;20101;-65
2022/03/14 13:05:20;;;;;;;26.17;15.32;;;;;;;;;;5076300;28;20048;-64
2022/03/14 13:08:01;;;;;;;27.52;15.63;;;;;;;;;;5077618;28;20146;-65
2022/03/14 13:10:44;;;;;;;22.70;15.65;;;;;;;;;;5087093;28;20072;-66
2022/03/14 13:13:10;;;;;;;21.90;14.23;;;;;;;;;;5084480;28;20054;-65
2022/03/14 13:15:40;;;;;;;22.95;14.80;;;;;;;;;;5093299;28;20036;-65
2022/03/14 13:18:19;;;;;;;24.35;13.63;;;;;;;;;;5093039;28;20044;-66
2022/03/14 13:20:45;;;;;;;26.50;12.90;;;;;;;;;;5089022;28;20449;-65
2022/03/14 13:23:18;;;;;;;21.70;13.05;;;;;;;;;;5083021;28;20044;-65
2022/03/14 13:25:49;;;;;;;25.58;13.75;;;;;;;;;;5080749;28;20074;-65
2022/03/14 13:28:27;;;;;;;23.08;14.52;;;;;;;;;;5079857;28;20500;-65
2022/03/14 13:30:54;;;;;;;25.38;13.95;;;;;;;;;;5079973;28;20166;-64
2022/03/14 13:33:25;;;;;;;20.67;12.70;;;;;;;;;;5092395;28;20050;-65
2022/03/14 13:35:52;;;;;;;24.50;13.02;;;;;;;;;;5092657;28;20044;-66
2022/03/14 13:38:27;;;;;;;21.27;11.50;;;;;;;;;;5090789;28;20042;-65
2022/03/14 13:40:54;;;;;;;19.98;11.07;;;;;;;;;;5090826;28;20120;-65
2022/03/14 13:43:20;;;;;;;21.60;11.93;;;;;;;;;;5084340;28;20104;-65
2022/03/14 13:45:46;;;;;;;21.38;11.20;;;;;;;;;;5092194;28;20043;-65
2022/03/14 13:48:12;;;;;;;22.90;12.00;;;;;;;;;;5092433;28;20152;-64
2022/03/14 13:50:45;;;;;;;20.65;12.55;;;;;;;;;;5091559;28;20052;-65
2022/03/14 13:53:20;;;;;;;23.05;12.13;;;;;;;;;;5091170;28;20089;-65
2022/03/14 13:55:56;;;;;;;15.88;11.18;;;;;;;;;;5078776;28;20040;-64
2022/03/14 13:58:28;;;;;;;20.90;11.35;;;;;;;;;;5077573;28;20037;-64
2022/03/14 14:00:54;;;;;;;19.20;10.68;;;;;;;;;;5085254;28;20120;-64
2022/03/14 14:03:24;;;;;;;20.60;10.68;;;;;;;;;;5087665;28;20475;-64
2022/03/14 14:05:51;;;;;;;18.70;10.13;;;;;;;;;;5092282;28;20093;-65
2022/03/14 14:08:34;;;;;;;19.27;9.90;;;;;;;;;;5092978;28;20036;-65
2022/03/14 14:11:00;;;;;;;18.05;10.43;;;;;;;;;;5092763;28;20079;-67
2022/03/14 14:13:46;;;;;;;20.95;9.77;;;;;;;;;;5089469;28;20060;-63
2022/03/14 14:16:19;;;;;;;20.90;10.13;;;;;;;;;;5088419;28;20664;-64
2022/03/14 14:18:46;;;;;;;14.93;10.02;;;;;;;;;;5082831;28;20044;-64
2022/03/14 14:21:18;;;;;;;20.15;10.20;;;;;;;;;;5090802;28;20487;-64
2022/03/14 14:23:45;;;;;;;17.52;10.27;;;;;;;;;;5083910;28;20036;-65
2022/03/14 14:26:11;;;;;;;17.42;9.45;;;;;;;;;;5092856;28;20123;-65
2022/03/14 14:28:38;;;;;;;14.07;8.52;;;;;;;;;;5078191;28;20040;-65
2022/03/14 14:31:04;;;;;;;19.23;7.68;;;;;;;;;;5074558;28;20060;-65
2022/03/14 14:33:35;;;;;;;15.55;8.40;;;;;;;;;;5078825;28;20867;-66